createdAt,value
2022-10-30T00:02:25.915Z,14.32
2022-10-30T00:04:53.481Z,9.73
2022-10-30T00:07:20.622Z,12.10
2022-10-30T00:09:47.828Z,13.38
2022-10-30T00:12:15.246Z,9.73
2022-10-30T00:14:42.456Z,10.63
2022-10-30T00:17:09.783Z,11.73
2022-10-30T00:19:37.142Z,8.48
2022-10-30T00:24:30.971Z,24.17
2022-10-30T00:27:16.863Z,10.82
2022-10-30T00:29:44.768Z,10.68
2022-10-30T00:32:11.960Z,7.43
2022-10-30T00:34:39.187Z,10.55
2022-10-30T00:37:08.446Z,9.90
2022-10-30T00:39:53.844Z,12.95
2022-10-30T00:42:21.256Z,9.50
2022-10-30T00:44:50.192Z,11.13
2022-10-30T00:47:23.869Z,11.27
2022-10-30T00:50:09.509Z,11.75
2022-10-30T00:52:48.256Z,12.13
2022-10-30T00:55:34.479Z,12.35
2022-10-30T00:58:26.593Z,10.60
2022-10-30T01:01:17.981Z,9.32
2022-10-30T01:03:46.755Z,13.32
2022-10-30T01:06:16.901Z,14.00
2022-10-30T01:08:45.157Z,9.05
2022-10-30T01:11:31.841Z,12.48
2022-10-30T01:14:04.324Z,9.88
2022-10-30T01:16:43.001Z,7.90
2022-10-30T01:19:16.974Z,13.10
2022-10-30T01:22:23.184Z,10.88
2022-10-30T01:25:03.359Z,12.00
2022-10-30T01:27:39.484Z,14.38
2022-10-30T01:30:46.351Z,11.13
2022-10-30T01:33:37.864Z,10.82
2022-10-30T01:36:22.775Z,11.98
2022-10-30T01:39:22.565Z,10.38
2022-10-30T01:41:50.694Z,9.65
2022-10-30T01:44:37.298Z,13.02
2022-10-30T01:47:10.268Z,14.02
2022-10-30T01:49:40.397Z,13.10
2022-10-30T01:52:28.634Z,10.38
2022-10-30T01:55:26.553Z,13.15
2022-10-30T01:58:21.725Z,15.65
2022-10-30T02:01:10.571Z,12.30
2022-10-30T02:03:57.306Z,11.88
2022-10-30T02:06:45.388Z,8.85
2022-10-30T02:09:31.776Z,13.00
2022-10-30T02:12:00.376Z,11.75
2022-10-30T02:14:32.989Z,13.05
2022-10-30T02:17:03.915Z,9.65
2022-10-30T02:19:31.214Z,12.25
2022-10-30T02:21:58.735Z,10.63
2022-10-30T02:24:28.912Z,10.05
2022-10-30T02:26:56.177Z,12.52
2022-10-30T02:29:23.452Z,15.52
2022-10-30T02:31:51.099Z,14.32
2022-10-30T02:34:18.382Z,11.98
2022-10-30T02:36:45.797Z,11.52
2022-10-30T02:39:13.201Z,12.50
2022-10-30T02:41:40.475Z,12.10
2022-10-30T02:44:26.009Z,10.68
2022-10-30T02:47:11.625Z,9.63
2022-10-30T02:49:39.149Z,14.77
2022-10-30T02:52:08.394Z,12.80
2022-10-30T02:54:36.210Z,9.48
2022-10-30T02:57:21.733Z,11.13
2022-10-30T02:59:49.151Z,9.75
2022-10-30T03:02:34.939Z,13.60
2022-10-30T03:05:02.493Z,10.68
2022-10-30T03:07:29.732Z,14.10
2022-10-30T03:10:16.089Z,17.00
2022-10-30T03:12:43.559Z,9.88
2022-10-30T03:15:11.261Z,10.90
2022-10-30T03:17:38.477Z,12.02
2022-10-30T03:20:06.453Z,15.43
2022-10-30T03:22:52.214Z,12.30
2022-10-30T03:25:23.800Z,11.82
2022-10-30T03:28:13.725Z,11.65
2022-10-30T03:31:01.870Z,14.77
2022-10-30T03:33:29.965Z,11.23
2022-10-30T03:35:58.056Z,15.15
2022-10-30T03:38:25.933Z,12.50
2022-10-30T03:40:53.329Z,14.48
2022-10-30T03:43:20.965Z,11.70
2022-10-30T03:45:53.336Z,13.43
2022-10-30T03:48:23.143Z,14.13
2022-10-30T03:50:52.861Z,12.50
2022-10-30T03:53:20.872Z,13.98
2022-10-30T03:55:48.288Z,13.93
2022-10-30T03:58:16.314Z,14.57
2022-10-30T04:00:43.984Z,13.80
2022-10-30T04:03:12.052Z,17.30
2022-10-30T04:05:42.934Z,10.35
2022-10-30T04:08:14.676Z,12.18
2022-10-30T04:11:00.629Z,17.77
2022-10-30T04:13:28.078Z,17.30
2022-10-30T04:15:58.147Z,14.50
2022-10-30T04:18:26.867Z,14.90
2022-10-30T04:20:55.387Z,13.35
2022-10-30T04:23:23.109Z,15.07
2022-10-30T04:25:50.389Z,16.25
2022-10-30T04:28:37.384Z,15.18
2022-10-30T04:31:23.419Z,18.20
2022-10-30T04:33:51.633Z,16.08
2022-10-30T04:36:37.283Z,13.32
2022-10-30T04:39:05.201Z,15.77
2022-10-30T04:41:34.255Z,14.35
2022-10-30T04:44:25.484Z,16.52
2022-10-30T04:46:55.652Z,14.43
2022-10-30T04:49:22.916Z,15.35
2022-10-30T04:51:50.281Z,20.90
2022-10-30T04:54:18.546Z,14.20
2022-10-30T04:56:45.803Z,19.50
2022-10-30T04:59:12.985Z,18.17
2022-10-30T05:01:40.438Z,15.18
2022-10-30T05:04:08.326Z,16.85
2022-10-30T05:06:36.664Z,20.23
2022-10-30T05:09:04.186Z,17.95
2022-10-30T05:11:41.592Z,18.55
2022-10-30T05:14:08.830Z,14.45
2022-10-30T05:16:37.658Z,21.95
2022-10-30T05:19:05.794Z,20.45
2022-10-30T05:21:34.635Z,20.70
2022-10-30T05:24:20.335Z,25.98
2022-10-30T05:27:06.466Z,20.13
2022-10-30T05:29:35.084Z,17.05
2022-10-30T05:32:02.372Z,19.73
2022-10-30T05:34:38.899Z,16.63
2022-10-30T05:37:06.125Z,25.60
2022-10-30T05:39:33.376Z,25.08
2022-10-30T05:42:01.044Z,24.17
2022-10-30T05:45:01.036Z,22.83
2022-10-30T05:47:27.335Z,22.85
2022-10-30T05:49:56.828Z,16.08
2022-10-30T05:52:26.535Z,18.40
2022-10-30T05:54:53.702Z,17.77
2022-10-30T05:57:33.301Z,20.38
2022-10-30T06:00:01.874Z,20.02
2022-10-30T06:02:30.802Z,19.70
2022-10-30T06:05:16.447Z,19.08
2022-10-30T06:07:44.092Z,15.48
2022-10-30T06:10:11.346Z,17.05
2022-10-30T06:13:06.517Z,17.02
2022-10-30T06:16:00.400Z,16.75
2022-10-30T06:18:40.871Z,19.80
2022-10-30T06:21:29.926Z,21.45
2022-10-30T06:24:17.632Z,18.80
2022-10-30T06:27:05.230Z,20.23
2022-10-30T06:29:32.567Z,22.95
2022-10-30T06:32:03.817Z,19.38
2022-10-30T06:34:52.245Z,19.33
2022-10-30T06:37:19.831Z,19.23
2022-10-30T06:39:47.612Z,20.77
2022-10-30T06:42:48.292Z,18.35
2022-10-30T06:45:35.829Z,19.13
2022-10-30T06:48:21.537Z,18.70
2022-10-30T06:50:57.586Z,21.48
2022-10-30T06:53:27.732Z,18.90
2022-10-30T06:56:04.386Z,20.42
2022-10-30T06:59:13.492Z,15.23
2022-10-30T07:02:01.013Z,19.63
2022-10-30T07:04:40.007Z,20.73
2022-10-30T07:07:09.694Z,21.90
2022-10-30T07:09:55.772Z,22.80
2022-10-30T07:12:36.431Z,20.05
2022-10-30T07:15:36.693Z,20.92
2022-10-30T07:18:19.271Z,16.80
2022-10-30T07:20:46.965Z,17.13
2022-10-30T07:23:32.737Z,17.92
2022-10-30T07:26:16.008Z,17.00
2022-10-30T07:29:05.093Z,14.02
2022-10-30T07:31:57.613Z,15.30
2022-10-30T07:34:49.462Z,19.00
2022-10-30T07:37:40.612Z,16.33
2022-10-30T07:40:12.963Z,14.75
2022-10-30T07:43:06.939Z,18.88
2022-10-30T07:45:36.907Z,14.93
2022-10-30T07:48:22.741Z,16.13
2022-10-30T07:51:18.778Z,18.80
2022-10-30T07:53:46.228Z,17.38
2022-10-30T07:56:13.530Z,14.40
2022-10-30T07:58:53.329Z,15.23
2022-10-30T08:01:52.752Z,13.93
2022-10-30T08:04:31.627Z,14.48
2022-10-30T08:07:07.147Z,16.20
2022-10-30T08:09:52.894Z,14.43
2022-10-30T08:12:20.460Z,14.25
2022-10-30T08:14:47.785Z,13.27
2022-10-30T08:17:15.626Z,13.77
2022-10-30T08:19:43.628Z,15.55
2022-10-30T08:22:11.919Z,24.48
2022-10-30T08:24:40.107Z,13.07
2022-10-30T08:27:07.488Z,18.48
2022-10-30T08:29:35.897Z,10.50
2022-10-30T08:32:21.791Z,19.02
2022-10-30T08:35:08.161Z,12.68
2022-10-30T08:37:35.700Z,13.40
2022-10-30T08:40:21.077Z,13.85
2022-10-30T08:42:57.806Z,11.68
2022-10-30T08:45:29.989Z,11.70
2022-10-30T08:48:10.160Z,11.00
2022-10-30T08:50:39.713Z,13.13
2022-10-30T08:53:11.514Z,14.65
2022-10-30T08:55:39.158Z,12.00
2022-10-30T08:58:13.402Z,13.57
2022-10-30T09:00:42.911Z,16.80
2022-10-30T09:03:31.171Z,9.70
2022-10-30T09:06:18.918Z,13.90
2022-10-30T09:09:12.153Z,12.88
2022-10-30T09:11:49.051Z,12.40
2022-10-30T09:14:35.074Z,13.40
2022-10-30T09:17:02.624Z,11.23
2022-10-30T09:19:30.961Z,12.30
2022-10-30T09:22:17.576Z,16.33
2022-10-30T09:24:45.134Z,10.55
2022-10-30T09:27:42.009Z,13.65
2022-10-30T09:30:12.556Z,14.63
2022-10-30T09:32:44.143Z,12.70
2022-10-30T09:35:35.857Z,11.27
2022-10-30T09:38:21.709Z,14.32
2022-10-30T09:41:30.715Z,10.13
2022-10-30T09:44:19.179Z,11.63
2022-10-30T09:47:22.383Z,10.48
2022-10-30T09:50:29.514Z,12.93
2022-10-30T09:53:18.534Z,11.55
2022-10-30T09:56:03.380Z,10.60
2022-10-30T09:58:43.881Z,9.38
2022-10-30T10:01:20.587Z,11.82
2022-10-30T10:03:57.969Z,9.32
2022-10-30T10:07:01.150Z,13.98
2022-10-30T10:09:53.071Z,9.98
2022-10-30T10:12:47.805Z,11.98
2022-10-30T10:15:27.320Z,11.32
2022-10-30T10:17:58.007Z,8.35
2022-10-30T10:20:37.087Z,16.08
2022-10-30T10:23:29.436Z,8.38
2022-10-30T10:26:00.359Z,8.52
2022-10-30T10:28:55.344Z,12.48
2022-10-30T10:31:40.800Z,7.80
2022-10-30T10:34:19.857Z,13.80
2022-10-30T10:36:49.991Z,16.15
2022-10-30T10:40:12.301Z,8.90
2022-10-30T10:42:51.762Z,8.75
2022-10-30T10:45:55.725Z,11.80
2022-10-30T10:49:00.551Z,7.57
2022-10-30T10:51:33.600Z,9.30
2022-10-30T10:54:56.058Z,9.35
2022-10-30T10:57:38.274Z,7.70
2022-10-30T11:00:08.802Z,8.77
2022-10-30T11:02:44.901Z,12.00
2022-10-30T11:05:38.015Z,8.80
2022-10-30T11:08:22.790Z,6.95
2022-10-30T11:11:12.807Z,7.75
2022-10-30T11:13:42.822Z,9.63
2022-10-30T11:16:36.818Z,12.38
2022-10-30T11:19:08.168Z,7.47
2022-10-30T11:21:43.675Z,8.07
2022-10-30T11:24:30.505Z,7.25
2022-10-30T11:27:17.013Z,9.90
2022-10-30T11:30:00.674Z,7.97
2022-10-30T11:32:31.684Z,6.43
2022-10-30T11:35:19.911Z,7.05
2022-10-30T11:37:52.365Z,8.57
2022-10-30T11:40:38.134Z,8.68
2022-10-30T11:43:06.104Z,11.07
2022-10-30T11:45:37.582Z,8.90
2022-10-30T11:48:27.207Z,10.45
2022-10-30T11:51:13.957Z,10.38
2022-10-30T11:53:47.350Z,8.63
2022-10-30T11:56:35.591Z,9.93
2022-10-30T11:59:05.652Z,8.23
2022-10-30T12:02:02.543Z,7.30
2022-10-30T12:04:50.408Z,9.82
2022-10-30T12:07:36.223Z,8.43
2022-10-30T12:10:04.575Z,9.35
2022-10-30T12:12:42.622Z,9.93
2022-10-30T12:15:28.390Z,10.45
2022-10-30T12:18:23.054Z,10.65
2022-10-30T12:20:54.272Z,10.38
2022-10-30T12:23:25.955Z,7.55
2022-10-30T12:25:59.039Z,13.55
2022-10-30T12:28:30.551Z,8.13
2022-10-30T12:31:00.734Z,6.35
2022-10-30T12:33:44.275Z,8.68
2022-10-30T12:36:16.762Z,13.43
2022-10-30T12:38:46.320Z,9.02
2022-10-30T12:41:46.831Z,10.80
2022-10-30T12:44:49.747Z,10.52
2022-10-30T12:47:47.608Z,10.55
2022-10-30T12:50:45.263Z,10.73
2022-10-30T12:53:51.446Z,6.78
2022-10-30T12:56:33.913Z,10.40
2022-10-30T12:59:37.834Z,11.35
2022-10-30T13:02:12.988Z,11.55
2022-10-30T13:04:47.565Z,8.23
2022-10-30T13:07:29.759Z,8.55
2022-10-30T13:10:15.776Z,9.85
2022-10-30T13:12:47.384Z,10.93
2022-10-30T13:15:20.412Z,7.22
2022-10-30T13:18:18.806Z,10.52
2022-10-30T13:20:59.100Z,8.15
2022-10-30T13:24:06.724Z,8.73
2022-10-30T13:26:44.305Z,8.35
2022-10-30T13:29:45.362Z,9.15
2022-10-30T13:32:36.843Z,9.95
2022-10-30T13:35:25.087Z,14.05
2022-10-30T13:38:01.707Z,10.13
2022-10-30T13:40:56.404Z,9.07
2022-10-30T13:43:45.404Z,6.38
2022-10-30T13:46:15.159Z,7.40
2022-10-30T13:48:53.418Z,8.70
2022-10-30T13:51:49.263Z,11.20
2022-10-30T13:54:25.476Z,8.57
2022-10-30T13:56:55.930Z,9.80
2022-10-30T13:59:28.761Z,10.98
2022-10-30T14:02:20.246Z,7.88
2022-10-30T14:05:03.998Z,8.15
2022-10-30T14:07:36.956Z,8.10
2022-10-30T14:10:20.319Z,10.18
2022-10-30T14:12:56.876Z,12.63
2022-10-30T14:15:30.693Z,15.20
2022-10-30T14:18:24.989Z,12.27
2022-10-30T14:20:54.298Z,12.60
2022-10-30T14:23:40.350Z,9.00
2022-10-30T14:26:10.792Z,8.93
2022-10-30T14:28:44.467Z,8.15
2022-10-30T14:31:17.765Z,8.38
2022-10-30T14:33:51.052Z,10.82
2022-10-30T14:36:39.833Z,10.55
2022-10-30T14:39:12.948Z,13.13
2022-10-30T14:42:01.668Z,11.23
2022-10-30T14:44:50.882Z,7.55
2022-10-30T14:47:27.052Z,8.63
2022-10-30T14:50:00.686Z,10.25
2022-10-30T14:52:49.251Z,9.48
2022-10-30T14:55:26.883Z,8.80
2022-10-30T14:58:03.203Z,7.88
2022-10-30T15:00:44.918Z,13.38
2022-10-30T15:03:54.176Z,12.65
2022-10-30T15:06:32.538Z,11.48
2022-10-30T15:09:08.709Z,12.90
2022-10-30T15:12:14.427Z,12.30
2022-10-30T15:14:53.936Z,13.63
2022-10-30T15:17:41.123Z,11.75
2022-10-30T15:20:19.024Z,12.20
2022-10-30T15:22:49.677Z,13.15
2022-10-30T15:25:20.542Z,14.13
2022-10-30T15:27:54.290Z,11.50
2022-10-30T15:30:26.571Z,10.68
2022-10-30T15:32:54.511Z,12.13
2022-10-30T15:35:47.569Z,13.35
2022-10-30T15:38:33.353Z,13.68
2022-10-30T15:41:03.350Z,13.07
2022-10-30T15:43:49.110Z,13.70
2022-10-30T15:46:16.730Z,16.48
2022-10-30T15:49:02.825Z,14.68
2022-10-30T15:51:48.690Z,17.33
2022-10-30T15:54:34.426Z,17.20
2022-10-30T15:57:42.828Z,14.70
2022-10-30T16:02:37.272Z,16.02
2022-10-30T16:05:21.623Z,18.17
2022-10-30T16:07:48.842Z,17.13
2022-10-30T16:10:19.143Z,17.52
2022-10-30T16:13:05.172Z,16.45
2022-10-30T16:15:39.401Z,17.92
2022-10-30T16:18:18.895Z,14.93
2022-10-30T16:20:53.086Z,15.93
2022-10-30T16:23:21.255Z,16.52
2022-10-30T16:25:57.685Z,14.23
2022-10-30T16:28:28.883Z,15.02
2022-10-30T16:31:05.652Z,14.57
2022-10-30T16:33:35.284Z,17.27
2022-10-30T16:36:04.738Z,17.75
2022-10-30T16:38:51.172Z,14.63
2022-10-30T16:41:24.100Z,19.38
2022-10-30T16:44:17.829Z,19.38
2022-10-30T16:46:48.603Z,18.15
2022-10-30T16:49:24.621Z,22.15
2022-10-30T16:52:14.587Z,23.05
2022-10-30T16:54:50.417Z,29.08
2022-10-30T16:57:24.333Z,39.95
2022-10-30T16:59:53.359Z,23.25
2022-10-30T17:02:23.471Z,22.17
2022-10-30T17:04:58.000Z,22.05
2022-10-30T17:07:26.981Z,26.45
2022-10-30T17:09:57.024Z,26.58
2022-10-30T17:12:25.333Z,29.08
2022-10-30T17:14:55.369Z,27.85
2022-10-30T17:17:28.690Z,20.70
2022-10-30T17:20:29.923Z,18.02
2022-10-30T17:23:13.740Z,19.05
2022-10-30T17:25:59.601Z,17.05
2022-10-30T17:28:34.729Z,19.08
2022-10-30T17:31:38.943Z,18.77
2022-10-30T17:34:18.956Z,17.98
2022-10-30T17:36:48.047Z,22.38
2022-10-30T17:42:01.292Z,18.92
2022-10-30T17:44:35.513Z,20.75
2022-10-30T17:47:17.772Z,17.15
2022-10-30T17:49:45.714Z,16.30
2022-10-30T17:52:15.579Z,16.80
2022-10-30T17:54:43.883Z,17.50
2022-10-30T17:57:12.384Z,16.02
2022-10-30T17:59:40.226Z,16.02
2022-10-30T18:02:16.268Z,16.75
2022-10-30T18:04:44.342Z,15.63
2022-10-30T18:07:13.138Z,18.33
2022-10-30T18:09:40.896Z,17.73
2022-10-30T18:12:14.005Z,20.38
2022-10-30T18:14:43.136Z,18.23
2022-10-30T18:17:11.126Z,16.55
2022-10-30T18:19:56.459Z,18.38
2022-10-30T18:22:23.839Z,17.83
2022-10-30T18:24:51.032Z,18.23
2022-10-30T18:27:18.400Z,21.63
2022-10-30T18:29:45.628Z,17.52
2022-10-30T18:32:12.967Z,21.42
2022-10-30T18:34:40.201Z,18.27
2022-10-30T18:37:25.699Z,21.33
2022-10-30T18:40:11.634Z,25.35
2022-10-30T18:42:39.291Z,18.90
2022-10-30T18:45:17.078Z,20.13
2022-10-30T18:47:44.670Z,18.33
2022-10-30T18:50:12.481Z,19.75
2022-10-30T18:52:39.930Z,16.20
2022-10-30T18:55:35.339Z,18.00
2022-10-30T18:58:04.158Z,21.02
2022-10-30T19:00:45.017Z,20.50
2022-10-30T19:03:18.625Z,25.55
2022-10-30T19:05:50.912Z,31.88
2022-10-30T19:08:18.688Z,50.65
2022-10-30T19:10:47.762Z,46.88
2022-10-30T19:13:24.608Z,43.13
2022-10-30T19:15:59.811Z,34.78
2022-10-30T19:18:28.506Z,31.53
2022-10-30T19:21:04.380Z,32.63
2022-10-30T19:23:33.655Z,31.50
2022-10-30T19:26:00.903Z,31.48
2022-10-30T19:28:30.059Z,29.25
2022-10-30T19:30:57.218Z,25.73
2022-10-30T19:33:43.786Z,24.60
2022-10-30T19:36:30.276Z,24.50
2022-10-30T19:38:57.559Z,25.50
2022-10-30T19:41:25.274Z,26.58
2022-10-30T19:43:53.689Z,28.05
2022-10-30T19:46:21.783Z,24.98
2022-10-30T19:48:58.076Z,27.33
2022-10-30T19:53:53.962Z,30.67
2022-10-30T19:56:22.050Z,30.50
2022-10-30T19:58:50.110Z,33.85
2022-10-30T20:01:17.921Z,28.17
2022-10-30T20:03:45.197Z,28.23
2022-10-30T20:06:15.331Z,26.00
2022-10-30T20:08:42.997Z,25.67
2022-10-30T20:11:10.639Z,29.13
2022-10-30T20:13:38.053Z,30.17
2022-10-30T20:16:05.988Z,26.40
2022-10-30T20:18:35.489Z,27.77
2022-10-30T20:21:08.494Z,24.75
2022-10-30T20:23:54.143Z,24.15
2022-10-30T20:26:28.245Z,23.58
2022-10-30T20:28:55.784Z,24.58
2022-10-30T20:31:23.294Z,25.58
2022-10-30T20:33:50.451Z,24.88
2022-10-30T20:36:17.701Z,19.95
2022-10-30T20:38:45.192Z,23.80
2022-10-30T20:41:30.720Z,24.52
2022-10-30T20:43:58.229Z,28.17
2022-10-30T20:46:25.841Z,25.88
2022-10-30T20:48:53.269Z,26.65
2022-10-30T20:51:21.427Z,24.48
2022-10-30T20:53:48.879Z,27.75
2022-10-30T20:56:16.042Z,23.20
2022-10-30T20:58:43.263Z,21.13
2022-10-30T21:01:11.877Z,22.65
2022-10-30T21:03:39.228Z,23.77
2022-10-30T21:06:09.944Z,22.23
2022-10-30T21:08:55.636Z,23.85
2022-10-30T21:11:41.220Z,24.23
2022-10-30T21:14:08.711Z,26.45
2022-10-30T21:16:35.873Z,25.27
2022-10-30T21:19:03.580Z,24.73
2022-10-30T21:21:30.993Z,27.83
2022-10-30T21:23:58.221Z,22.60
2022-10-30T21:26:25.357Z,26.60
2022-10-30T21:29:11.456Z,25.58
2022-10-30T21:31:38.891Z,24.00
2022-10-30T21:34:06.293Z,24.73
2022-10-30T21:36:33.558Z,23.58
2022-10-30T21:39:19.511Z,24.65
2022-10-30T21:41:46.959Z,24.35
2022-10-30T21:44:15.527Z,23.63
2022-10-30T21:46:43.102Z,25.00
2022-10-30T21:49:13.752Z,24.30
2022-10-30T21:51:59.659Z,21.92
2022-10-30T21:54:27.099Z,26.58
2022-10-30T21:56:54.395Z,26.55
2022-10-30T21:59:40.853Z,27.17
2022-10-30T22:02:15.468Z,24.10
2022-10-30T22:04:42.874Z,28.00
2022-10-30T22:07:28.527Z,28.33
2022-10-30T22:10:14.072Z,31.25
2022-10-30T22:12:41.578Z,26.63
2022-10-30T22:15:09.293Z,28.48
2022-10-30T22:17:36.545Z,30.27
2022-10-30T22:20:04.515Z,29.05
2022-10-30T22:22:32.028Z,27.33
2022-10-30T22:24:59.202Z,30.33
2022-10-30T22:27:26.639Z,28.98
2022-10-30T22:29:53.860Z,32.88
2022-10-30T22:32:23.089Z,26.92
2022-10-30T22:34:50.556Z,29.52
2022-10-30T22:37:17.695Z,26.00
2022-10-30T22:39:44.979Z,29.65
2022-10-30T22:42:12.426Z,27.05
2022-10-30T22:44:57.988Z,25.90
2022-10-30T22:47:25.386Z,32.95
2022-10-30T22:49:52.547Z,30.30
2022-10-30T22:52:19.694Z,32.38
2022-10-30T22:54:47.231Z,32.40
2022-10-30T22:57:14.483Z,26.75
2022-10-30T22:59:42.247Z,31.58
2022-10-30T23:02:09.656Z,33.30
2022-10-30T23:04:37.041Z,31.05
2022-10-30T23:07:04.451Z,36.22
2022-10-30T23:09:31.706Z,33.40
2022-10-30T23:11:59.201Z,35.00
2022-10-30T23:14:26.469Z,38.10
2022-10-30T23:16:53.914Z,37.78
2022-10-30T23:19:21.216Z,41.20
2022-10-30T23:21:48.648Z,40.03
2022-10-30T23:24:15.866Z,38.80
2022-10-30T23:26:43.381Z,33.28
2022-10-30T23:29:10.605Z,40.05
2022-10-30T23:31:40.565Z,49.67
2022-10-30T23:34:10.638Z,39.72
2022-10-30T23:36:38.618Z,44.03
2022-10-30T23:39:08.644Z,50.25
2022-10-30T23:41:36.263Z,45.00
2022-10-30T23:44:06.747Z,46.50
2022-10-30T23:46:35.863Z,49.08
2022-10-30T23:49:04.353Z,44.70
2022-10-30T23:51:32.175Z,47.03
2022-10-30T23:53:59.663Z,39.13
2022-10-30T23:56:29.481Z,40.08
2022-10-30T23:58:57.650Z,42.75
